sensor_id;sensor_type;location;lat;lon;timestamp;pressure;altitude;pressure_sealevel;temperature;humidity
70982;BME280;58640;51.320;9.456;2023-03-15T00:01:00;98752.34;;;2.11;69.09
70982;BME280;58640;51.320;9.456;2023-03-15T00:03:25;98756.84;;;2.20;67.86
70982;BME280;58640;51.320;9.456;2023-03-15T00:05:51;98760.06;;;2.04;68.78
70982;BME280;58640;51.320;9.456;2023-03-15T00:08:17;98762.81;;;2.03;68.57
70982;BME280;58640;51.320;9.456;2023-03-15T00:10:44;98769.09;;;2.02;69.14
70982;BME280;58640;51.320;9.456;2023-03-15T00:13:11;98766.59;;;2.00;69.58
70982;BME280;58640;51.320;9.456;2023-03-15T00:15:43;98778.47;;;1.96;69.84
70982;BME280;58640;51.320;9.456;2023-03-15T00:18:08;98774.81;;;1.88;69.18
70982;BME280;58640;51.320;9.456;2023-03-15T00:20:36;98773.16;;;1.87;69.37
70982;BME280;58640;51.320;9.456;2023-03-15T00:23:01;98773.41;;;1.84;69.93
70982;BME280;58640;51.320;9.456;2023-03-15T00:25:26;98782.50;;;1.91;69.57
70982;BME280;58640;51.320;9.456;2023-03-15T00:27:52;98781.75;;;1.79;69.58
70982;BME280;58640;51.320;9.456;2023-03-15T00:30:17;98773.38;;;1.74;70.53
70982;BME280;58640;51.320;9.456;2023-03-15T00:32:43;98783.69;;;1.68;71.84
70982;BME280;58640;51.320;9.456;2023-03-15T00:35:10;98791.50;;;1.60;72.02
70982;BME280;58640;51.320;9.456;2023-03-15T00:37:37;98790.50;;;1.51;73.00
70982;BME280;58640;51.320;9.456;2023-03-15T00:40:02;98789.25;;;1.65;72.54
70982;BME280;58640;51.320;9.456;2023-03-15T00:42:28;98792.44;;;1.49;73.17
70982;BME280;58640;51.320;9.456;2023-03-15T00:44:53;98794.47;;;1.36;74.01
70982;BME280;58640;51.320;9.456;2023-03-15T00:47:21;98796.63;;;1.42;73.74
70982;BME280;58640;51.320;9.456;2023-03-15T00:49:47;98803.38;;;1.25;75.02
70982;BME280;58640;51.320;9.456;2023-03-15T00:52:12;98796.03;;;1.38;74.12
70982;BME280;58640;51.320;9.456;2023-03-15T00:54:37;98804.63;;;1.31;74.23
70982;BME280;58640;51.320;9.456;2023-03-15T00:57:03;98806.94;;;1.15;75.16
70982;BME280;58640;51.320;9.456;2023-03-15T00:59:30;98803.03;;;1.09;75.08
70982;BME280;58640;51.320;9.456;2023-03-15T01:02:02;98806.13;;;1.14;75.05
70982;BME280;58640;51.320;9.456;2023-03-15T01:04:28;98808.31;;;1.09;75.04
70982;BME280;58640;51.320;9.456;2023-03-15T01:09:25;98812.19;;;1.05;75.01
70982;BME280;58640;51.320;9.456;2023-03-15T01:11:50;98813.84;;;0.97;75.75
70982;BME280;58640;51.320;9.456;2023-03-15T01:14:16;98808.97;;;1.02;75.45
70982;BME280;58640;51.320;9.456;2023-03-15T01:16:43;98813.13;;;0.95;75.80
70982;BME280;58640;51.320;9.456;2023-03-15T01:19:08;98806.19;;;1.03;75.32
70982;BME280;58640;51.320;9.456;2023-03-15T01:21:34;98807.81;;;0.95;75.92
70982;BME280;58640;51.320;9.456;2023-03-15T01:23:59;98808.47;;;0.87;76.14
70982;BME280;58640;51.320;9.456;2023-03-15T01:26:24;98807.28;;;1.01;75.29
70982;BME280;58640;51.320;9.456;2023-03-15T01:28:50;98807.22;;;0.91;75.92
70982;BME280;58640;51.320;9.456;2023-03-15T01:31:23;98812.53;;;0.91;76.65
70982;BME280;58640;51.320;9.456;2023-03-15T01:33:49;98806.78;;;1.07;76.02
70982;BME280;58640;51.320;9.456;2023-03-15T01:36:14;98817.47;;;1.05;75.52
70982;BME280;58640;51.320;9.456;2023-03-15T01:38:40;98813.44;;;1.01;76.47
70982;BME280;58640;51.320;9.456;2023-03-15T01:41:06;98811.22;;;1.06;76.86
70982;BME280;58640;51.320;9.456;2023-03-15T01:43:32;98816.53;;;1.06;76.80
70982;BME280;58640;51.320;9.456;2023-03-15T01:48:38;98808.34;;;1.19;76.65
70982;BME280;58640;51.320;9.456;2023-03-15T01:51:17;98811.31;;;1.25;76.41
70982;BME280;58640;51.320;9.456;2023-03-15T01:53:49;98812.22;;;1.35;76.01
70982;BME280;58640;51.320;9.456;2023-03-15T01:56:17;98812.50;;;1.42;76.07
70982;BME280;58640;51.320;9.456;2023-03-15T01:58:43;98807.91;;;1.44;75.80
70982;BME280;58640;51.320;9.456;2023-03-15T02:01:09;98815.19;;;1.52;75.40
70982;BME280;58640;51.320;9.456;2023-03-15T02:03:38;98816.88;;;1.52;75.07
70982;BME280;58640;51.320;9.456;2023-03-15T02:06:13;98821.03;;;1.55;74.57
70982;BME280;58640;51.320;9.456;2023-03-15T02:08:48;98826.75;;;1.50;74.96
70982;BME280;58640;51.320;9.456;2023-03-15T02:11:17;98832.59;;;1.44;75.23
70982;BME280;58640;51.320;9.456;2023-03-15T02:13:43;98829.94;;;1.44;75.30
70982;BME280;58640;51.320;9.456;2023-03-15T02:16:09;98828.13;;;1.45;75.49
70982;BME280;58640;51.320;9.456;2023-03-15T02:18:34;98824.09;;;1.50;75.39
70982;BME280;58640;51.320;9.456;2023-03-15T02:21:27;98830.25;;;1.51;74.79
70982;BME280;58640;51.320;9.456;2023-03-15T02:24:15;98821.63;;;1.59;75.06
70982;BME280;58640;51.320;9.456;2023-03-15T02:26:55;98828.63;;;1.60;74.14
70982;BME280;58640;51.320;9.456;2023-03-15T02:29:23;98825.22;;;1.48;75.15
70982;BME280;58640;51.320;9.456;2023-03-15T02:31:51;98829.84;;;1.56;75.34
70982;BME280;58640;51.320;9.456;2023-03-15T02:34:16;98837.97;;;1.64;75.53
70982;BME280;58640;51.320;9.456;2023-03-15T02:36:42;98837.97;;;1.64;74.64
70982;BME280;58640;51.320;9.456;2023-03-15T02:39:18;98836.66;;;1.58;75.87
70982;BME280;58640;51.320;9.456;2023-03-15T02:41:47;98840.91;;;1.70;75.21
70982;BME280;58640;51.320;9.456;2023-03-15T02:44:23;98843.69;;;1.69;75.59
70982;BME280;58640;51.320;9.456;2023-03-15T02:46:52;98843.16;;;1.75;75.01
70982;BME280;58640;51.320;9.456;2023-03-15T02:49:22;98840.47;;;1.65;76.44
70982;BME280;58640;51.320;9.456;2023-03-15T02:51:48;98842.84;;;1.68;76.64
70982;BME280;58640;51.320;9.456;2023-03-15T02:54:13;98846.75;;;1.64;78.13
70982;BME280;58640;51.320;9.456;2023-03-15T02:56:38;98843.53;;;1.61;79.51
70982;BME280;58640;51.320;9.456;2023-03-15T02:59:04;98844.38;;;1.61;80.15
70982;BME280;58640;51.320;9.456;2023-03-15T03:01:29;98851.91;;;1.56;80.85
70982;BME280;58640;51.320;9.456;2023-03-15T03:03:55;98850.19;;;1.55;80.55
70982;BME280;58640;51.320;9.456;2023-03-15T03:06:21;98855.94;;;1.60;80.99
70982;BME280;58640;51.320;9.456;2023-03-15T03:08:46;98854.28;;;1.59;81.72
70982;BME280;58640;51.320;9.456;2023-03-15T03:11:13;98858.16;;;1.55;81.76
70982;BME280;58640;51.320;9.456;2023-03-15T03:13:40;98861.34;;;1.49;82.02
70982;BME280;58640;51.320;9.456;2023-03-15T03:16:05;98866.81;;;1.57;81.72
70982;BME280;58640;51.320;9.456;2023-03-15T03:18:31;98861.38;;;1.59;81.77
70982;BME280;58640;51.320;9.456;2023-03-15T03:21:02;98861.94;;;1.62;82.00
70982;BME280;58640;51.320;9.456;2023-03-15T03:23:29;98873.91;;;1.57;81.79
70982;BME280;58640;51.320;9.456;2023-03-15T03:25:56;98870.13;;;1.49;82.18
70982;BME280;58640;51.320;9.456;2023-03-15T03:28:23;98869.59;;;1.56;82.01
70982;BME280;58640;51.320;9.456;2023-03-15T03:30:50;98866.31;;;1.42;82.26
70982;BME280;58640;51.320;9.456;2023-03-15T03:33:15;98867.41;;;1.30;83.13
70982;BME280;58640;51.320;9.456;2023-03-15T03:35:41;98864.38;;;1.44;82.93
70982;BME280;58640;51.320;9.456;2023-03-15T03:38:07;98868.16;;;1.42;83.23
70982;BME280;58640;51.320;9.456;2023-03-15T03:40:33;98877.47;;;1.36;83.37
70982;BME280;58640;51.320;9.456;2023-03-15T03:42:58;98886.00;;;1.40;83.04
70982;BME280;58640;51.320;9.456;2023-03-15T03:45:23;98892.41;;;1.47;83.09
70982;BME280;58640;51.320;9.456;2023-03-15T03:47:49;98891.50;;;1.58;82.53
70982;BME280;58640;51.320;9.456;2023-03-15T03:50:16;98894.19;;;1.67;82.25
70982;BME280;58640;51.320;9.456;2023-03-15T03:52:42;98889.88;;;1.76;81.21
70982;BME280;58640;51.320;9.456;2023-03-15T03:55:08;98887.28;;;1.85;80.66
70982;BME280;58640;51.320;9.456;2023-03-15T03:57:34;98892.59;;;1.95;80.10
70982;BME280;58640;51.320;9.456;2023-03-15T03:59:59;98899.03;;;1.92;79.97
70982;BME280;58640;51.320;9.456;2023-03-15T04:02:24;98902.53;;;1.93;80.34
70982;BME280;58640;51.320;9.456;2023-03-15T04:04:50;98909.94;;;1.99;79.56
70982;BME280;58640;51.320;9.456;2023-03-15T04:07:15;98918.06;;;2.07;79.88
70982;BME280;58640;51.320;9.456;2023-03-15T04:09:41;98916.91;;;2.00;80.26
70982;BME280;58640;51.320;9.456;2023-03-15T04:12:07;98918.47;;;2.02;80.70
70982;BME280;58640;51.320;9.456;2023-03-15T04:14:32;98924.88;;;2.00;80.87
70982;BME280;58640;51.320;9.456;2023-03-15T04:16:58;98935.09;;;2.04;80.81
70982;BME280;58640;51.320;9.456;2023-03-15T04:19:23;98935.47;;;2.00;80.03
70982;BME280;58640;51.320;9.456;2023-03-15T04:21:49;98944.09;;;1.92;80.86
70982;BME280;58640;51.320;9.456;2023-03-15T04:24:16;98944.97;;;1.93;81.13
70982;BME280;58640;51.320;9.456;2023-03-15T04:26:41;98944.00;;;2.03;80.83
70982;BME280;58640;51.320;9.456;2023-03-15T04:29:08;98947.22;;;1.97;81.50
70982;BME280;58640;51.320;9.456;2023-03-15T04:31:33;98947.66;;;2.02;81.31
70982;BME280;58640;51.320;9.456;2023-03-15T04:34:02;98952.69;;;2.05;80.99
70982;BME280;58640;51.320;9.456;2023-03-15T04:36:28;98944.47;;;2.18;80.15
70982;BME280;58640;51.320;9.456;2023-03-15T04:38:55;98947.09;;;2.08;80.40
70982;BME280;58640;51.320;9.456;2023-03-15T04:41:30;98949.22;;;2.14;80.15
70982;BME280;58640;51.320;9.456;2023-03-15T04:43:58;98947.94;;;2.09;79.65
70982;BME280;58640;51.320;9.456;2023-03-15T04:46:24;98948.91;;;2.08;79.42
70982;BME280;58640;51.320;9.456;2023-03-15T04:48:49;98953.81;;;2.12;79.64
70982;BME280;58640;51.320;9.456;2023-03-15T04:51:15;98950.47;;;2.10;79.53
70982;BME280;58640;51.320;9.456;2023-03-15T04:53:40;98958.69;;;2.07;79.74
70982;BME280;58640;51.320;9.456;2023-03-15T04:56:06;98947.81;;;2.10;79.44
70982;BME280;58640;51.320;9.456;2023-03-15T04:58:31;98958.72;;;2.17;79.15
70982;BME280;58640;51.320;9.456;2023-03-15T05:00:56;98957.75;;;2.18;79.02
70982;BME280;58640;51.320;9.456;2023-03-15T05:03:22;98960.25;;;2.19;79.08
70982;BME280;58640;51.320;9.456;2023-03-15T05:05:47;98963.09;;;2.37;78.31
70982;BME280;58640;51.320;9.456;2023-03-15T05:08:12;98975.09;;;2.22;79.49
70982;BME280;58640;51.320;9.456;2023-03-15T05:10:38;98969.84;;;2.41;79.05
70982;BME280;58640;51.320;9.456;2023-03-15T05:13:03;98980.50;;;2.20;80.68
70982;BME280;58640;51.320;9.456;2023-03-15T05:15:29;98973.22;;;2.13;82.15
70982;BME280;58640;51.320;9.456;2023-03-15T05:17:54;98986.31;;;2.05;83.46
70982;BME280;58640;51.320;9.456;2023-03-15T05:20:20;98993.75;;;2.20;82.82
70982;BME280;58640;51.320;9.456;2023-03-15T05:22:46;99000.59;;;2.13;83.88
70982;BME280;58640;51.320;9.456;2023-03-15T05:25:11;98993.03;;;2.09;83.69
70982;BME280;58640;51.320;9.456;2023-03-15T05:27:38;98993.19;;;2.07;84.50
70982;BME280;58640;51.320;9.456;2023-03-15T05:30:04;99003.22;;;2.04;85.48
70982;BME280;58640;51.320;9.456;2023-03-15T05:32:30;98997.47;;;1.99;85.93
70982;BME280;58640;51.320;9.456;2023-03-15T05:34:58;99009.38;;;2.04;85.52
70982;BME280;58640;51.320;9.456;2023-03-15T05:37:24;99013.00;;;2.13;85.05
70982;BME280;58640;51.320;9.456;2023-03-15T05:39:49;99016.91;;;2.09;86.33
70982;BME280;58640;51.320;9.456;2023-03-15T05:42:14;99014.16;;;2.20;85.70
70982;BME280;58640;51.320;9.456;2023-03-15T05:44:40;99024.75;;;2.10;86.38
70982;BME280;58640;51.320;9.456;2023-03-15T05:47:05;99026.53;;;2.10;86.69
70982;BME280;58640;51.320;9.456;2023-03-15T05:49:31;99020.34;;;2.00;87.40
70982;BME280;58640;51.320;9.456;2023-03-15T05:51:56;99040.03;;;1.97;88.62
70982;BME280;58640;51.320;9.456;2023-03-15T05:54:21;99036.56;;;2.06;87.67
70982;BME280;58640;51.320;9.456;2023-03-15T05:56:47;99040.34;;;2.04;88.43
70982;BME280;58640;51.320;9.456;2023-03-15T05:59:12;99048.63;;;2.10;88.32
70982;BME280;58640;51.320;9.456;2023-03-15T06:01:37;99049.47;;;2.20;88.41
70982;BME280;58640;51.320;9.456;2023-03-15T06:04:03;99051.84;;;2.14;88.84
70982;BME280;58640;51.320;9.456;2023-03-15T06:06:28;99054.38;;;2.15;89.59
70982;BME280;58640;51.320;9.456;2023-03-15T06:08:54;99060.44;;;2.06;89.50
70982;BME280;58640;51.320;9.456;2023-03-15T06:11:19;99064.28;;;1.93;92.00
70982;BME280;58640;51.320;9.456;2023-03-15T06:13:44;99074.59;;;1.86;92.33
70982;BME280;58640;51.320;9.456;2023-03-15T06:16:10;99072.47;;;1.80;93.32
70982;BME280;58640;51.320;9.456;2023-03-15T06:18:35;99080.00;;;1.85;93.08
70982;BME280;58640;51.320;9.456;2023-03-15T06:21:00;99081.41;;;1.89;93.03
70982;BME280;58640;51.320;9.456;2023-03-15T06:23:26;99090.28;;;1.78;93.85
70982;BME280;58640;51.320;9.456;2023-03-15T06:25:51;99087.44;;;1.70;94.50
70982;BME280;58640;51.320;9.456;2023-03-15T06:28:16;99094.94;;;1.65;95.29
70982;BME280;58640;51.320;9.456;2023-03-15T06:30:42;99096.88;;;1.84;93.79
70982;BME280;58640;51.320;9.456;2023-03-15T06:33:07;99099.31;;;1.87;93.56
70982;BME280;58640;51.320;9.456;2023-03-15T06:35:32;99102.91;;;1.86;94.57
70982;BME280;58640;51.320;9.456;2023-03-15T06:37:58;99104.06;;;1.93;94.73
70982;BME280;58640;51.320;9.456;2023-03-15T06:40:23;99107.41;;;1.95;94.03
70982;BME280;58640;51.320;9.456;2023-03-15T06:42:48;99112.28;;;2.10;93.62
70982;BME280;58640;51.320;9.456;2023-03-15T06:45:14;99118.56;;;1.89;94.31
70982;BME280;58640;51.320;9.456;2023-03-15T06:47:40;99116.28;;;1.84;94.93
70982;BME280;58640;51.320;9.456;2023-03-15T06:50:06;99124.63;;;1.80;95.28
70982;BME280;58640;51.320;9.456;2023-03-15T06:52:32;99119.00;;;1.73;95.61
70982;BME280;58640;51.320;9.456;2023-03-15T06:54:57;99126.63;;;1.87;94.45
70982;BME280;58640;51.320;9.456;2023-03-15T06:57:23;99135.69;;;1.85;95.56
70982;BME280;58640;51.320;9.456;2023-03-15T06:59:48;99141.47;;;1.90;95.42
70982;BME280;58640;51.320;9.456;2023-03-15T07:02:16;99139.50;;;1.92;95.11
70982;BME280;58640;51.320;9.456;2023-03-15T07:04:42;99147.03;;;2.07;94.31
70982;BME280;58640;51.320;9.456;2023-03-15T07:09:44;99158.16;;;2.22;93.27
70982;BME280;58640;51.320;9.456;2023-03-15T07:12:10;99161.69;;;2.11;94.32
70982;BME280;58640;51.320;9.456;2023-03-15T07:14:35;99160.66;;;2.03;95.32
70982;BME280;58640;51.320;9.456;2023-03-15T07:17:01;99170.06;;;2.07;95.41
70982;BME280;58640;51.320;9.456;2023-03-15T07:19:27;99171.59;;;2.09;94.22
70982;BME280;58640;51.320;9.456;2023-03-15T07:21:52;99180.94;;;2.04;94.35
70982;BME280;58640;51.320;9.456;2023-03-15T07:24:17;99177.94;;;2.18;93.85
70982;BME280;58640;51.320;9.456;2023-03-15T07:26:43;99190.22;;;2.19;92.50
70982;BME280;58640;51.320;9.456;2023-03-15T07:29:08;99190.69;;;2.24;92.80
70982;BME280;58640;51.320;9.456;2023-03-15T07:31:34;99189.34;;;2.29;92.96
70982;BME280;58640;51.320;9.456;2023-03-15T07:33:59;99194.78;;;2.28;92.94
70982;BME280;58640;51.320;9.456;2023-03-15T07:36:24;99184.84;;;2.30;92.16
70982;BME280;58640;51.320;9.456;2023-03-15T07:38:50;99186.88;;;2.37;91.46
70982;BME280;58640;51.320;9.456;2023-03-15T07:41:15;99187.47;;;2.41;92.41
70982;BME280;58640;51.320;9.456;2023-03-15T07:43:41;99196.69;;;3.07;91.12
70982;BME280;58640;51.320;9.456;2023-03-15T07:46:06;99195.31;;;3.61;87.11
70982;BME280;58640;51.320;9.456;2023-03-15T07:48:32;99198.69;;;4.20;84.75
70982;BME280;58640;51.320;9.456;2023-03-15T07:50:57;99191.47;;;4.96;81.94
70982;BME280;58640;51.320;9.456;2023-03-15T07:53:23;99195.72;;;5.16;76.91
70982;BME280;58640;51.320;9.456;2023-03-15T07:55:48;99201.16;;;5.51;74.72
70982;BME280;58640;51.320;9.456;2023-03-15T07:58:14;99199.84;;;6.35;72.03
70982;BME280;58640;51.320;9.456;2023-03-15T08:00:40;99203.94;;;6.98;67.19
70982;BME280;58640;51.320;9.456;2023-03-15T08:03:05;99215.16;;;7.01;66.51
70982;BME280;58640;51.320;9.456;2023-03-15T08:05:32;99210.63;;;6.94;67.12
70982;BME280;58640;51.320;9.456;2023-03-15T08:07:58;99200.16;;;6.32;67.03
70982;BME280;58640;51.320;9.456;2023-03-15T08:10:23;99207.25;;;6.06;67.42
70982;BME280;58640;51.320;9.456;2023-03-15T08:12:49;99211.91;;;6.04;68.27
70982;BME280;58640;51.320;9.456;2023-03-15T08:15:15;99215.28;;;6.06;67.17
70982;BME280;58640;51.320;9.456;2023-03-15T08:17:41;99227.13;;;6.03;65.95
70982;BME280;58640;51.320;9.456;2023-03-15T08:20:08;99220.13;;;5.48;65.05
70982;BME280;58640;51.320;9.456;2023-03-15T08:22:36;99226.38;;;5.39;64.57
70982;BME280;58640;51.320;9.456;2023-03-15T08:25:02;99223.16;;;5.35;66.34
70982;BME280;58640;51.320;9.456;2023-03-15T08:27:27;99238.28;;;4.52;68.11
70982;BME280;58640;51.320;9.456;2023-03-15T08:29:52;99232.53;;;4.57;68.65
70982;BME280;58640;51.320;9.456;2023-03-15T08:32:18;99239.53;;;4.67;68.00
70982;BME280;58640;51.320;9.456;2023-03-15T08:34:44;99241.66;;;4.44;68.84
70982;BME280;58640;51.320;9.456;2023-03-15T08:37:10;99241.09;;;4.50;69.55
70982;BME280;58640;51.320;9.456;2023-03-15T08:39:38;99254.00;;;3.98;71.75
70982;BME280;58640;51.320;9.456;2023-03-15T08:42:04;99266.72;;;3.85;73.45
70982;BME280;58640;51.320;9.456;2023-03-15T08:44:30;99278.97;;;3.48;77.68
70982;BME280;58640;51.320;9.456;2023-03-15T08:46:56;99282.41;;;3.39;78.58
70982;BME280;58640;51.320;9.456;2023-03-15T08:49:21;99282.38;;;3.29;80.19
70982;BME280;58640;51.320;9.456;2023-03-15T08:51:47;99287.53;;;3.21;80.66
70982;BME280;58640;51.320;9.456;2023-03-15T08:54:12;99290.00;;;3.53;80.05
70982;BME280;58640;51.320;9.456;2023-03-15T08:56:39;99299.19;;;3.69;78.73
70982;BME280;58640;51.320;9.456;2023-03-15T08:59:05;99301.59;;;3.82;77.92
70982;BME280;58640;51.320;9.456;2023-03-15T09:01:31;99314.13;;;3.61;78.23
70982;BME280;58640;51.320;9.456;2023-03-15T09:03:56;99307.34;;;3.08;80.36
70982;BME280;58640;51.320;9.456;2023-03-15T09:06:21;99319.69;;;3.48;79.49
70982;BME280;58640;51.320;9.456;2023-03-15T09:08:47;99326.28;;;3.54;79.14
70982;BME280;58640;51.320;9.456;2023-03-15T09:11:12;99328.13;;;3.63;78.08
70982;BME280;58640;51.320;9.456;2023-03-15T09:13:38;99333.38;;;3.44;79.56
70982;BME280;58640;51.320;9.456;2023-03-15T09:16:03;99320.94;;;3.44;79.06
70982;BME280;58640;51.320;9.456;2023-03-15T09:18:29;99334.63;;;3.79;78.04
70982;BME280;58640;51.320;9.456;2023-03-15T09:20:54;99326.13;;;3.95;77.88
70982;BME280;58640;51.320;9.456;2023-03-15T09:23:20;99326.84;;;4.06;75.91
70982;BME280;58640;51.320;9.456;2023-03-15T09:25:45;99327.94;;;4.04;75.92
70982;BME280;58640;51.320;9.456;2023-03-15T09:28:11;99329.97;;;4.30;76.40
70982;BME280;58640;51.320;9.456;2023-03-15T09:30:37;99327.09;;;5.08;75.49
70982;BME280;58640;51.320;9.456;2023-03-15T09:33:03;99331.28;;;5.57;72.90
70982;BME280;58640;51.320;9.456;2023-03-15T09:35:29;99324.50;;;5.99;70.46
70982;BME280;58640;51.320;9.456;2023-03-15T09:37:54;99332.47;;;6.79;68.78
70982;BME280;58640;51.320;9.456;2023-03-15T09:40:29;99339.09;;;7.43;62.36
70982;BME280;58640;51.320;9.456;2023-03-15T09:51:26;99348.81;;;6.23;59.36
70982;BME280;58640;51.320;9.456;2023-03-15T09:54:03;99354.34;;;6.12;60.20
70982;BME280;58640;51.320;9.456;2023-03-15T09:56:34;99366.13;;;5.46;60.76
70982;BME280;58640;51.320;9.456;2023-03-15T09:59:01;99361.00;;;5.25;60.04
70982;BME280;58640;51.320;9.456;2023-03-15T10:01:32;99359.66;;;5.58;59.52
70982;BME280;58640;51.320;9.456;2023-03-15T10:04:05;99371.84;;;5.60;57.02
70982;BME280;58640;51.320;9.456;2023-03-15T10:06:32;99378.44;;;6.03;57.09
70982;BME280;58640;51.320;9.456;2023-03-15T10:09:02;99364.38;;;6.45;55.89
70982;BME280;58640;51.320;9.456;2023-03-15T10:11:44;99368.53;;;6.75;55.46
70982;BME280;58640;51.320;9.456;2023-03-15T10:17:12;99369.31;;;6.23;56.39
70982;BME280;58640;51.320;9.456;2023-03-15T10:19:48;99372.19;;;5.84;57.73
70982;BME280;58640;51.320;9.456;2023-03-15T10:22:22;99380.09;;;5.67;58.66
70982;BME280;58640;51.320;9.456;2023-03-15T10:24:58;99389.44;;;6.44;57.16
70982;BME280;58640;51.320;9.456;2023-03-15T10:30:24;99382.81;;;7.26;55.79
70982;BME280;58640;51.320;9.456;2023-03-15T10:33:03;99381.34;;;7.83;52.13
70982;BME280;58640;51.320;9.456;2023-03-15T10:35:30;99379.69;;;8.24;54.12
70982;BME280;58640;51.320;9.456;2023-03-15T10:37:56;99380.53;;;7.57;51.99
70982;BME280;58640;51.320;9.456;2023-03-15T10:40:45;99372.53;;;7.39;52.68
70982;BME280;58640;51.320;9.456;2023-03-15T10:46:07;99388.63;;;5.89;56.03
70982;BME280;58640;51.320;9.456;2023-03-15T10:48:52;99390.53;;;5.97;55.00
70982;BME280;58640;51.320;9.456;2023-03-15T10:51:23;99391.69;;;5.94;54.77
70982;BME280;58640;51.320;9.456;2023-03-15T10:53:52;99389.09;;;6.30;56.40
70982;BME280;58640;51.320;9.456;2023-03-15T10:56:24;99387.31;;;7.00;53.42
70982;BME280;58640;51.320;9.456;2023-03-15T10:58:52;99388.69;;;7.81;53.31
70982;BME280;58640;51.320;9.456;2023-03-15T11:01:26;99387.25;;;8.28;50.40
70982;BME280;58640;51.320;9.456;2023-03-15T11:06:26;99383.53;;;8.21;49.16
70982;BME280;58640;51.320;9.456;2023-03-15T11:08:53;99391.38;;;7.81;49.00
70982;BME280;58640;51.320;9.456;2023-03-15T11:11:51;99389.88;;;7.53;49.77
70982;BME280;58640;51.320;9.456;2023-03-15T11:14:17;99389.28;;;6.98;51.17
70982;BME280;58640;51.320;9.456;2023-03-15T11:16:54;99402.81;;;7.14;50.87
70982;BME280;58640;51.320;9.456;2023-03-15T11:19:22;99402.66;;;6.63;51.08
70982;BME280;58640;51.320;9.456;2023-03-15T11:21:50;99403.03;;;7.03;50.56
70982;BME280;58640;51.320;9.456;2023-03-15T11:24:26;99410.81;;;7.14;51.67
70982;BME280;58640;51.320;9.456;2023-03-15T11:26:53;99405.28;;;7.33;52.64
70982;BME280;58640;51.320;9.456;2023-03-15T11:29:34;99406.31;;;6.97;49.24
70982;BME280;58640;51.320;9.456;2023-03-15T11:32:09;99405.97;;;6.92;50.24
70982;BME280;58640;51.320;9.456;2023-03-15T11:37:06;99414.09;;;6.38;51.84
70982;BME280;58640;51.320;9.456;2023-03-15T11:39:45;99402.13;;;6.60;52.45
70982;BME280;58640;51.320;9.456;2023-03-15T11:42:35;99406.47;;;6.61;50.83
70982;BME280;58640;51.320;9.456;2023-03-15T11:45:46;99413.22;;;6.82;51.44
70982;BME280;58640;51.320;9.456;2023-03-15T11:48:16;99417.00;;;6.80;51.07
70982;BME280;58640;51.320;9.456;2023-03-15T11:50:43;99413.28;;;6.90;50.74
70982;BME280;58640;51.320;9.456;2023-03-15T11:53:15;99416.25;;;7.05;49.34
70982;BME280;58640;51.320;9.456;2023-03-15T11:55:47;99419.75;;;7.05;47.50
70982;BME280;58640;51.320;9.456;2023-03-15T11:58:31;99417.13;;;6.43;49.35
70982;BME280;58640;51.320;9.456;2023-03-15T12:01:04;99418.69;;;6.46;49.75
70982;BME280;58640;51.320;9.456;2023-03-15T12:03:41;99426.38;;;6.49;50.75
70982;BME280;58640;51.320;9.456;2023-03-15T12:08:49;99423.25;;;6.53;50.70
70982;BME280;58640;51.320;9.456;2023-03-15T12:14:20;99417.94;;;6.71;48.59
70982;BME280;58640;51.320;9.456;2023-03-15T12:16:46;99419.03;;;6.78;49.23
70982;BME280;58640;51.320;9.456;2023-03-15T12:19:17;99406.09;;;6.91;49.94
70982;BME280;58640;51.320;9.456;2023-03-15T12:21:45;99419.03;;;6.95;47.77
70982;BME280;58640;51.320;9.456;2023-03-15T12:24:25;99419.75;;;6.70;47.99
70982;BME280;58640;51.320;9.456;2023-03-15T12:27:01;99418.16;;;6.60;48.38
70982;BME280;58640;51.320;9.456;2023-03-15T12:29:29;99422.34;;;6.62;48.15
70982;BME280;58640;51.320;9.456;2023-03-15T12:32:04;99428.06;;;6.50;48.31
70982;BME280;58640;51.320;9.456;2023-03-15T12:34:52;99424.25;;;6.52;48.88
70982;BME280;58640;51.320;9.456;2023-03-15T12:37:26;99436.19;;;6.31;48.83
70982;BME280;58640;51.320;9.456;2023-03-15T12:53:33;99434.22;;;5.59;46.90
70982;BME280;58640;51.320;9.456;2023-03-15T12:58:52;99429.38;;;5.07;45.85
70982;BME280;58640;51.320;9.456;2023-03-15T13:01:18;99445.63;;;5.04;47.63
70982;BME280;58640;51.320;9.456;2023-03-15T13:03:43;99435.81;;;5.14;47.79
70982;BME280;58640;51.320;9.456;2023-03-15T13:06:31;99426.09;;;5.42;47.78
70982;BME280;58640;51.320;9.456;2023-03-15T13:09:12;99424.66;;;5.47;47.18
70982;BME280;58640;51.320;9.456;2023-03-15T13:12:07;99427.59;;;5.54;47.80
70982;BME280;58640;51.320;9.456;2023-03-15T13:14:55;99426.31;;;5.67;46.81
70982;BME280;58640;51.320;9.456;2023-03-15T13:17:49;99410.03;;;5.61;48.24
70982;BME280;58640;51.320;9.456;2023-03-15T13:23:10;99430.91;;;5.75;46.00
70982;BME280;58640;51.320;9.456;2023-03-15T13:25:49;99424.47;;;5.87;42.93
70982;BME280;58640;51.320;9.456;2023-03-15T13:28:26;99426.78;;;6.00;44.48
70982;BME280;58640;51.320;9.456;2023-03-15T13:31:09;99434.41;;;5.94;44.97
70982;BME280;58640;51.320;9.456;2023-03-15T13:33:35;99423.97;;;6.01;45.88
70982;BME280;58640;51.320;9.456;2023-03-15T13:36:02;99434.47;;;6.12;46.05
70982;BME280;58640;51.320;9.456;2023-03-15T13:41:01;99415.91;;;6.38;46.42
70982;BME280;58640;51.320;9.456;2023-03-15T13:43:37;99423.88;;;6.47;45.54
70982;BME280;58640;51.320;9.456;2023-03-15T13:46:03;99430.53;;;6.78;44.12
70982;BME280;58640;51.320;9.456;2023-03-15T13:48:32;99430.91;;;7.01;42.12
70982;BME280;58640;51.320;9.456;2023-03-15T13:53:42;99429.31;;;6.73;43.60
70982;BME280;58640;51.320;9.456;2023-03-15T13:56:08;99441.38;;;6.94;42.75
70982;BME280;58640;51.320;9.456;2023-03-15T13:58:36;99437.59;;;6.97;42.33
70982;BME280;58640;51.320;9.456;2023-03-15T14:01:06;99451.47;;;6.83;42.31
70982;BME280;58640;51.320;9.456;2023-03-15T14:03:32;99446.06;;;6.75;42.79
70982;BME280;58640;51.320;9.456;2023-03-15T14:05:58;99444.59;;;6.80;42.64
70982;BME280;58640;51.320;9.456;2023-03-15T14:08:30;99441.16;;;6.88;41.33
70982;BME280;58640;51.320;9.456;2023-03-15T14:11:41;99452.84;;;6.87;41.45
70982;BME280;58640;51.320;9.456;2023-03-15T14:13:52;99449.78;;;6.82;39.03
70982;BME280;58640;51.320;9.456;2023-03-15T14:16:33;99451.88;;;6.61;39.88